Time;durP1;ratioP1;P1;durP2;ratioP2;P2;SDS_P1;SDS_P2;PMS_P1;PMS_P2;Temp;Humidity;BMP_temperature;BMP_pressure;BME280_temperature;BME280_humidity;BME280_pressure;Samples;Min_cycle;Max_cycle;Signal;HPM_P1;HPM_P2
2022/10/27 00:02:09;;;;;;;8.30;5.07;;;;;;;7.83;100.00;101489.84;4997343;28;20091;-83
2022/10/27 00:04:36;;;;;;;7.87;4.60;;;;;;;7.84;100.00;101495.09;4982153;28;20046;-84
2022/10/27 00:07:06;;;;;;;6.20;4.83;;;;;;;7.80;100.00;101490.69;4993227;28;20033;-84
2022/10/27 00:09:32;;;;;;;6.77;4.43;;;;;;;7.80;100.00;101495.06;4993918;28;20069;-84
2022/10/27 00:11:59;;;;;;;6.87;4.67;;;;;;;7.79;100.00;101498.56;4988754;28;20456;-84
2022/10/27 00:14:26;;;;;;;6.77;3.90;;;;;;;7.80;100.00;101502.97;4991566;28;20049;-84
2022/10/27 00:16:54;;;;;;;7.77;4.50;;;;;;;7.80;100.00;101501.22;4989529;28;20091;-84
2022/10/27 00:19:21;;;;;;;5.38;3.85;;;;;;;7.78;100.00;101508.22;4980565;28;20034;-83
2022/10/27 00:21:50;;;;;;;5.17;3.30;;;;;;;7.79;100.00;101507.34;5032526;28;20049;-84
2022/10/27 00:24:18;;;;;;;6.40;3.87;;;;;;;7.80;100.00;101518.75;4980154;28;20038;-84
2022/10/27 00:26:45;;;;;;;6.33;3.93;;;;;;;7.76;100.00;101515.22;4993725;28;20123;-83
2022/10/27 00:29:12;;;;;;;6.10;3.77;;;;;;;7.76;100.00;101514.34;5016047;28;20052;-84
2022/10/27 00:31:38;;;;;;;5.13;3.60;;;;;;;7.75;100.00;101524.00;4982147;28;20045;-84
2022/10/27 00:34:05;;;;;;;5.37;3.20;;;;;;;7.73;100.00;101530.97;5009966;28;20045;-84
2022/10/27 00:36:32;;;;;;;7.73;3.87;;;;;;;7.75;100.00;101533.66;5012078;28;20503;-84
2022/10/27 00:38:59;;;;;;;6.10;3.40;;;;;;;7.75;100.00;101533.66;5015972;28;20487;-83
2022/10/27 00:41:34;;;;;;;6.33;3.97;;;;;;;7.74;100.00;101537.16;5001705;28;20042;-83
2022/10/27 00:44:31;;;;;;;4.03;3.20;;;;;;;7.70;100.00;101530.97;4980763;28;20049;-84
2022/10/27 00:47:13;;;;;;;5.07;3.30;;;;;;;7.75;100.00;101534.53;5014133;28;20041;-84
2022/10/27 00:50:02;;;;;;;6.43;4.03;;;;;;;7.70;100.00;101536.25;5019376;28;20041;-84
2022/10/27 00:52:37;;;;;;;5.63;4.10;;;;;;;7.68;100.00;101538.00;4997205;28;20041;-84
2022/10/27 00:55:17;;;;;;;6.80;4.50;;;;;;;7.66;100.00;101547.63;4987409;28;20088;-83
2022/10/27 00:57:46;;;;;;;7.97;5.00;;;;;;;7.63;100.00;101537.06;4975198;28;20834;-84
2022/10/27 01:00:13;;;;;;;8.70;6.20;;;;;;;7.61;100.00;101539.69;5004484;28;20068;-84
2022/10/27 01:02:40;;;;;;;11.33;6.27;;;;;;;7.62;100.00;101537.94;4993894;28;20067;-84
2022/10/27 01:05:18;;;;;;;15.87;8.17;;;;;;;7.65;100.00;101537.06;4994344;28;20077;-83
2022/10/27 01:07:45;;;;;;;14.67;8.47;;;;;;;7.66;100.00;101541.50;4999187;28;20119;-84
2022/10/27 01:10:13;;;;;;;18.13;9.47;;;;;;;7.70;100.00;101533.59;4988966;28;20811;-83
2022/10/27 01:12:40;;;;;;;18.30;9.60;;;;;;;7.62;100.00;101544.09;4991939;28;20460;-84
2022/10/27 01:15:07;;;;;;;17.80;9.83;;;;;;;7.66;100.00;101546.75;5014071;28;20049;-84
2022/10/27 01:17:52;;;;;;;16.50;8.60;;;;;;;7.59;100.00;101548.47;5006277;28;20403;-84
2022/10/27 01:20:37;;;;;;;10.70;6.38;;;;;;;7.62;100.00;101558.97;5004605;28;20060;-83
2022/10/27 01:23:13;;;;;;;13.97;6.70;;;;;;;7.56;100.00;101558.94;5033790;28;20053;-84
2022/10/27 01:25:58;;;;;;;12.57;6.53;;;;;;;7.55;100.00;101558.06;4986743;28;20051;-84
2022/10/27 01:28:28;;;;;;;9.30;5.50;;;;;;;7.52;100.00;101568.56;5010402;28;20041;-84
2022/10/27 01:31:10;;;;;;;7.17;4.30;;;;;;;7.51;100.00;101561.56;5021087;28;20068;-84
2022/10/27 01:33:49;;;;;;;18.73;5.77;;;;;;;7.48;100.00;101565.91;5001860;28;20557;-84
2022/10/27 01:36:23;;;;;;;6.47;3.87;;;;;;;7.52;100.00;101572.94;5010953;28;20433;-83
2022/10/27 01:38:58;;;;;;;5.97;3.90;;;;;;;7.45;100.00;101566.75;5026840;28;20079;-84
2022/10/27 01:41:33;;;;;;;6.27;4.50;;;;;;;7.48;100.00;101571.16;5002875;28;20049;-83
2022/10/27 01:44:09;;;;;;;6.87;4.40;;;;;;;7.51;100.00;101571.19;5023129;28;20529;-83
2022/10/27 01:46:35;;;;;;;5.97;4.10;;;;;;;7.58;100.00;101573.88;4993659;28;20057;-83
2022/10/27 01:49:06;;;;;;;6.40;3.80;;;;;;;7.55;100.00;101572.97;5017398;28;20045;-84
2022/10/27 01:51:33;;;;;;;7.30;4.63;;;;;;;7.49;100.00;101575.56;5003790;28;20068;-84
2022/10/27 01:54:00;;;;;;;4.93;3.80;;;;;;;7.49;100.00;101578.19;4991154;28;20060;-84
2022/10/27 01:56:57;;;;;;;6.77;4.70;;;;;;;7.49;100.00;101586.09;4997125;28;20045;-83
2022/10/27 01:59:32;;;;;;;4.90;3.70;;;;;;;7.50;100.00;101585.22;4996822;28;20042;-84
2022/10/27 02:02:31;;;;;;;7.40;3.87;;;;;;;7.50;100.00;101582.59;5017990;28;20169;-84
2022/10/27 02:05:06;;;;;;;6.80;3.80;;;;;;;7.44;100.00;101585.16;5001518;28;20107;-83
2022/10/27 02:07:39;;;;;;;6.80;4.00;;;;;;;7.39;100.00;101590.38;5006926;28;20451;-83
2022/10/27 02:10:12;;;;;;;7.37;3.40;;;;;;;7.36;100.00;101590.34;5013075;28;20056;-83
2022/10/27 02:12:39;;;;;;;9.23;3.40;;;;;;;7.35;100.00;101599.13;5011936;28;20041;-84
2022/10/27 02:15:18;;;;;;;6.80;3.87;;;;;;;7.34;100.00;101585.09;5008628;28;20488;-83
2022/10/27 02:17:48;;;;;;;7.17;4.50;;;;;;;7.38;100.00;101586.00;4983439;28;20048;-85
2022/10/27 02:20:28;;;;;;;4.87;3.50;;;;;;;7.34;100.00;101602.63;4997256;28;20067;-83
2022/10/27 02:22:55;;;;;;;4.97;3.80;;;;;;;7.30;100.00;101596.44;5020689;28;20056;-84
2022/10/27 02:25:27;;;;;;;6.77;4.33;;;;;;;7.29;100.00;101591.19;5001179;28;20170;-83
2022/10/27 02:27:57;;;;;;;6.60;4.27;;;;;;;7.30;100.00;101599.06;5009912;28;20037;-83
2022/10/27 02:30:24;;;;;;;5.70;4.20;;;;;;;7.29;100.00;101592.06;5007183;28;20510;-84
2022/10/27 02:32:51;;;;;;;5.63;4.27;;;;;;;7.30;100.00;101593.81;4994164;28;20053;-85
2022/10/27 02:35:18;;;;;;;6.77;5.17;;;;;;;7.36;100.00;101597.38;5000842;28;20050;-84
2022/10/27 02:37:45;;;;;;;6.60;4.37;;;;;;;7.30;100.00;101599.06;5007442;28;20886;-84
2022/10/27 02:40:12;;;;;;;7.70;4.67;;;;;;;7.28;100.00;101611.31;5023781;28;20495;-84
2022/10/27 02:42:39;;;;;;;6.97;4.43;;;;;;;7.28;100.00;101600.81;5019109;28;20132;-84
2022/10/27 02:45:06;;;;;;;6.53;5.10;;;;;;;7.25;100.00;101600.81;5009455;28;20045;-84
2022/10/27 02:47:32;;;;;;;7.23;4.50;;;;;;;7.28;100.00;101605.19;5015078;28;20486;-84
2022/10/27 02:49:59;;;;;;;7.53;4.43;;;;;;;7.28;100.00;101606.06;5017164;28;20045;-84
2022/10/27 02:52:25;;;;;;;6.37;4.70;;;;;;;7.25;100.00;101603.44;5014359;28;20040;-84
2022/10/27 02:54:52;;;;;;;8.27;4.83;;;;;;;7.28;100.00;101602.56;5007383;28;20068;-84
2022/10/27 02:57:19;;;;;;;5.93;4.00;;;;;;;7.30;100.00;101604.31;5021127;28;20049;-83
2022/10/27 02:59:45;;;;;;;5.40;3.67;;;;;;;7.29;100.00;101602.56;5021804;28;20458;-84
2022/10/27 03:02:18;;;;;;;7.13;3.70;;;;;;;7.26;100.00;101617.44;4998411;28;20041;-84
2022/10/27 03:04:45;;;;;;;3.70;3.30;;;;;;;7.25;100.00;101616.56;5026875;28;20049;-84
2022/10/27 03:07:12;;;;;;;4.50;3.47;;;;;;;7.20;100.00;101620.91;5011021;28;20049;-85
2022/10/27 03:09:38;;;;;;;9.27;3.63;;;;;;;7.17;100.00;101620.00;5008724;28;20148;-85
2022/10/27 03:12:05;;;;;;;4.17;3.23;;;;;;;7.17;100.00;101625.25;5003859;28;20044;-84
2022/10/27 03:14:32;;;;;;;5.63;3.03;;;;;;;7.13;100.00;101629.59;5018245;28;20038;-85
2022/10/27 03:16:58;;;;;;;5.13;3.70;;;;;;;7.11;100.00;101628.69;5008804;28;20046;-85
2022/10/27 03:19:25;;;;;;;4.40;3.43;;;;;;;7.08;100.00;101630.44;5021793;28;20034;-84
2022/10/27 03:21:52;;;;;;;4.63;3.33;;;;;;;7.07;100.00;101632.19;5007400;28;20057;-85
2022/10/27 03:24:18;;;;;;;5.87;3.37;;;;;;;7.02;100.00;101634.75;5012499;28;20092;-85
2022/10/27 03:26:45;;;;;;;8.63;3.80;;;;;;;7.04;100.00;101642.63;5007384;28;20041;-84
2022/10/27 03:29:12;;;;;;;6.63;3.90;;;;;;;7.03;100.00;101638.25;5016364;28;20041;-84
2022/10/27 03:31:38;;;;;;;6.13;3.90;;;;;;;7.02;100.00;101644.38;5002074;28;20040;-85
2022/10/27 03:34:05;;;;;;;6.53;3.50;;;;;;;7.02;100.00;101641.75;4998976;28;20496;-84
2022/10/27 03:36:32;;;;;;;7.10;5.10;;;;;;;7.03;100.00;101646.13;5000778;28;20419;-85
2022/10/27 03:38:59;;;;;;;7.87;5.53;;;;;;;7.04;100.00;101651.41;4982870;28;20038;-84
2022/10/27 03:41:25;;;;;;;7.60;5.30;;;;;;;7.06;100.00;101656.66;5000499;28;20091;-85
2022/10/27 03:43:52;;;;;;;5.03;4.53;;;;;;;7.01;100.00;101647.88;5003467;28;20450;-84
2022/10/27 03:46:18;;;;;;;6.47;4.67;;;;;;;7.00;100.00;101654.00;4994241;28;20462;-84
2022/10/27 03:48:45;;;;;;;9.23;4.83;;;;;;;6.98;100.00;101654.00;5016409;28;20041;-85
2022/10/27 03:51:12;;;;;;;6.53;4.13;;;;;;;7.00;100.00;101649.63;5002806;28;20092;-84
2022/10/27 03:53:39;;;;;;;6.03;4.47;;;;;;;6.96;100.00;101660.06;5017522;28;20037;-84
2022/10/27 03:56:06;;;;;;;6.27;4.17;;;;;;;6.95;100.00;101663.56;5002639;28;20045;-85
2022/10/27 03:58:33;;;;;;;6.23;4.17;;;;;;;6.95;100.00;101663.56;5015119;28;20064;-85
2022/10/27 04:01:01;;;;;;;5.83;3.80;;;;;;;6.93;100.00;101670.56;5005405;28;20045;-85
2022/10/27 04:03:28;;;;;;;6.87;4.60;;;;;;;6.90;100.00;101673.16;5015818;28;20048;-84
2022/10/27 04:05:55;;;;;;;5.60;4.07;;;;;;;6.89;100.00;101674.88;5006083;28;20048;-85
2022/10/27 04:08:22;;;;;;;9.33;4.57;;;;;;;6.95;100.00;101672.31;4996984;28;20114;-84
2022/10/27 04:10:52;;;;;;;6.90;5.20;;;;;;;6.91;100.00;101674.94;5004068;28;20054;-84
2022/10/27 04:13:18;;;;;;;7.33;4.40;;;;;;;6.91;100.00;101680.19;5026668;28;20056;-84
2022/10/27 04:15:45;;;;;;;6.50;4.00;;;;;;;6.93;100.00;101683.69;4977482;28;20041;-84
2022/10/27 04:18:12;;;;;;;6.23;3.87;;;;;;;6.92;100.00;101687.19;5007590;28;20092;-84
2022/10/27 04:20:38;;;;;;;5.77;3.50;;;;;;;6.92;100.00;101684.56;5000124;28;20091;-84
2022/10/27 04:23:05;;;;;;;8.37;3.93;;;;;;;6.89;100.00;101690.66;4994767;28;20046;-85
2022/10/27 04:25:31;;;;;;;5.93;4.13;;;;;;;6.85;100.00;101688.88;4997671;28;20103;-84
2022/10/27 04:28:04;;;;;;;7.77;3.90;;;;;;;6.83;100.00;101684.47;5008350;28;20491;-82
2022/10/27 04:30:31;;;;;;;4.40;3.43;;;;;;;6.81;100.00;101691.41;5014652;28;20053;-82
2022/10/27 04:32:58;;;;;;;7.07;3.67;;;;;;;6.81;100.00;101686.16;5017552;28;20069;-82
2022/10/27 04:35:24;;;;;;;4.67;3.03;;;;;;;6.82;100.00;101688.84;4999413;28;20045;-82
2022/10/27 04:37:54;;;;;;;8.87;3.70;;;;;;;6.82;100.00;101682.72;5018626;28;20073;-82
2022/10/27 04:40:21;;;;;;;5.77;3.53;;;;;;;6.85;100.00;101691.50;4987160;28;20121;-82
2022/10/27 04:42:48;;;;;;;5.93;3.63;;;;;;;6.82;100.00;101704.59;5004576;28;20104;-82
2022/10/27 04:45:15;;;;;;;6.80;3.73;;;;;;;6.80;100.00;101705.41;4967707;28;20069;-84
2022/10/27 04:47:42;;;;;;;6.70;3.80;;;;;;;6.77;100.00;101701.91;4988967;28;20049;-84
2022/10/27 04:50:09;;;;;;;7.03;4.03;;;;;;;6.75;100.00;101702.75;5002993;28;20041;-82
2022/10/27 04:52:35;;;;;;;6.10;4.03;;;;;;;6.74;100.00;101704.50;5005602;28;20047;-82
2022/10/27 04:55:08;;;;;;;7.40;4.17;;;;;;;6.74;100.00;101703.63;5006820;28;20068;-81
2022/10/27 04:57:35;;;;;;;9.20;4.40;;;;;;;6.72;100.00;101703.59;5018447;28;20037;-82
2022/10/27 05:00:02;;;;;;;6.13;3.97;;;;;;;6.72;100.00;101702.69;5011289;28;20042;-82
2022/10/27 05:02:29;;;;;;;6.27;3.93;;;;;;;6.70;100.00;101700.06;5014264;28;20541;-82
2022/10/27 05:05:01;;;;;;;6.20;4.60;;;;;;;6.82;100.00;101703.72;5040381;28;20049;-83
2022/10/27 05:07:31;;;;;;;7.20;3.83;;;;;;;6.70;100.00;101707.06;5020435;28;20046;-82
2022/10/27 05:09:58;;;;;;;5.33;4.10;;;;;;;6.68;100.00;101708.78;5056201;28;20095;-82
2022/10/27 05:12:25;;;;;;;5.77;4.10;;;;;;;6.65;100.00;101708.78;5008714;28;20042;-82
2022/10/27 05:14:52;;;;;;;7.70;4.47;;;;;;;6.71;100.00;101719.31;4995363;28;20133;-82
2022/10/27 05:17:18;;;;;;;6.03;4.37;;;;;;;6.72;100.00;101731.59;5012486;28;20121;-85
2022/10/27 05:19:45;;;;;;;7.37;4.10;;;;;;;6.64;100.00;101726.28;4980478;28;20827;-84
2022/10/27 05:22:14;;;;;;;7.00;4.50;;;;;;;6.63;100.00;101724.47;4987354;28;20072;-84
2022/10/27 05:24:41;;;;;;;7.03;4.83;;;;;;;6.64;100.00;101726.28;4993270;28;20038;-85
2022/10/27 05:27:08;;;;;;;7.30;4.23;;;;;;;6.62;100.00;101733.22;4993426;28;20088;-85
2022/10/27 05:29:34;;;;;;;9.97;5.50;;;;;;;6.59;100.00;101732.31;4986723;28;20033;-85
2022/10/27 05:32:01;;;;;;;5.93;4.30;;;;;;;6.56;100.00;101732.25;4998851;28;20802;-85
2022/10/27 05:34:28;;;;;;;6.10;3.70;;;;;;;6.55;100.00;101736.63;5016296;28;20041;-87
2022/10/27 05:36:55;;;;;;;6.90;4.33;;;;;;;6.53;100.00;101743.59;5010862;28;20414;-83
2022/10/27 05:39:22;;;;;;;6.37;4.10;;;;;;;6.49;100.00;101741.81;5034340;28;20040;-85
2022/10/27 05:41:48;;;;;;;8.83;4.93;;;;;;;6.45;100.00;101740.00;5004177;28;20388;-85
2022/10/27 05:44:15;;;;;;;5.73;4.30;;;;;;;6.44;100.00;101743.50;4992286;28;20061;-84
2022/10/27 05:46:42;;;;;;;7.57;4.63;;;;;;;6.45;100.00;101742.63;5004957;28;20076;-85
2022/10/27 05:49:09;;;;;;;6.93;4.30;;;;;;;6.43;100.00;101739.97;4994361;28;20052;-86
2022/10/27 05:51:35;;;;;;;6.97;4.37;;;;;;;6.44;100.00;101749.63;4982320;28;20147;-85
2022/10/27 05:54:02;;;;;;;6.20;4.40;;;;;;;6.46;100.00;101747.00;5017466;28;20103;-84
2022/10/27 05:56:29;;;;;;;8.87;4.40;;;;;;;6.46;100.00;101749.63;5018888;28;20077;-84
2022/10/27 05:58:56;;;;;;;6.83;4.13;;;;;;;6.49;100.00;101752.31;4992794;28;20034;-85
2022/10/27 06:01:23;;;;;;;10.23;5.10;;;;;;;6.53;100.00;101756.75;4986960;28;20034;-85
2022/10/27 06:03:50;;;;;;;6.57;4.53;;;;;;;6.52;100.00;101752.34;4988450;28;20069;-84
2022/10/27 06:06:17;;;;;;;10.57;4.90;;;;;;;6.56;100.00;101751.53;4993911;28;20050;-85
2022/10/27 06:08:44;;;;;;;8.10;4.53;;;;;;;6.61;100.00;101757.72;4996591;28;20076;-83
2022/10/27 06:11:10;;;;;;;8.47;5.07;;;;;;;6.72;100.00;101757.84;4997077;28;20054;-85
2022/10/27 06:13:37;;;;;;;8.17;5.13;;;;;;;6.75;100.00;101764.03;5031091;28;20037;-87
2022/10/27 06:16:04;;;;;;;7.90;4.40;;;;;;;6.81;100.00;101755.38;4963946;28;20869;-85
2022/10/27 06:18:34;;;;;;;9.90;5.07;;;;;;;6.90;100.00;101773.00;4980455;28;20612;-86
2022/10/27 06:21:01;;;;;;;8.03;4.40;;;;;;;6.96;100.00;101757.28;4998718;28;20053;-86
2022/10/27 06:23:28;;;;;;;6.10;4.20;;;;;;;7.02;100.00;101762.63;5010444;28;20050;-84
2022/10/27 06:25:55;;;;;;;8.50;5.13;;;;;;;7.08;100.00;101769.69;5018808;28;20041;-86
2022/10/27 06:28:22;;;;;;;10.20;5.00;;;;;;;7.14;100.00;101765.38;5017233;28;20596;-84
2022/10/27 06:30:49;;;;;;;12.40;5.20;;;;;;;7.21;100.00;101766.31;4979040;28;20096;-85
2022/10/27 06:33:16;;;;;;;8.37;5.47;;;;;;;7.28;100.00;101768.16;5015734;28;20042;-84
2022/10/27 06:35:45;;;;;;;9.17;5.90;;;;;;;7.35;100.00;101770.00;5016778;28;20200;-84
2022/10/27 06:38:15;;;;;;;12.97;5.43;;;;;;;7.43;100.00;101777.97;5000193;28;20087;-85
2022/10/27 06:40:43;;;;;;;14.30;6.27;;;;;;;7.50;100.00;101783.31;4996848;28;20479;-86
2022/10/27 06:43:11;;;;;;;9.63;5.80;;;;;;;7.59;100.00;101787.78;5008181;28;20037;-85
2022/10/27 06:45:38;;;;;;;12.07;5.70;;;;;;;7.66;100.00;101786.97;5012481;28;20061;-85
2022/10/27 06:48:07;;;;;;;17.87;6.20;;;;;;;7.74;100.00;101785.28;4996418;28;20581;-85
2022/10/27 06:50:34;;;;;;;16.17;6.80;;;;;;;7.84;100.00;101784.50;4998227;28;20049;-84
2022/10/27 06:53:01;;;;;;;13.10;6.73;;;;;;;7.92;100.00;101787.19;5013469;28;20041;-86
2022/10/27 06:55:28;;;;;;;14.83;6.27;;;;;;;8.02;100.00;101788.16;4981736;28;20400;-85
2022/10/27 06:57:55;;;;;;;14.47;7.63;;;;;;;8.10;100.00;101789.09;4999120;28;20624;-86
2022/10/27 07:00:22;;;;;;;14.97;8.60;;;;;;;8.17;100.00;101791.78;4997762;28;20048;-85
2022/10/27 07:02:49;;;;;;;13.17;7.93;;;;;;;8.26;100.00;101800.63;5003116;28;20182;-86
2022/10/27 07:05:16;;;;;;;16.07;7.50;;;;;;;8.34;100.00;101794.53;5017031;28;20037;-85
2022/10/27 07:07:50;;;;;;;15.85;7.72;;;;;;;8.42;100.00;101807.78;4992716;28;20066;-85
2022/10/27 07:10:18;;;;;;;;;;;;;;;8.48;100.00;101807.81;5000761;28;20049;-85
2022/10/27 07:12:59;;;;;;;13.60;7.53;;;;;;;8.57;100.00;101809.63;5026130;28;20378;-86
2022/10/27 07:15:30;;;;;;;15.73;7.70;;;;;;;8.63;100.00;101814.94;4973107;28;20045;-84
2022/10/27 07:17:59;;;;;;;16.93;8.13;;;;;;;8.67;100.00;101814.97;5015132;28;20524;-85
2022/10/27 07:20:28;;;;;;;15.37;7.90;;;;;;;8.71;100.00;101813.22;5019569;28;20108;-84
2022/10/27 07:22:56;;;;;;;15.90;7.07;;;;;;;8.76;100.00;101805.34;4997547;28;20083;-84
2022/10/27 07:25:22;;;;;;;12.93;6.97;;;;;;;8.82;100.00;101813.28;5007186;28;20100;-85
2022/10/27 07:27:52;;;;;;;14.23;6.68;;;;;;;8.89;100.00;101815.94;5019976;28;20100;-84
2022/10/27 07:30:22;;;;;;;12.68;6.93;;;;;;;8.97;100.00;101824.78;5010619;28;20064;-82
2022/10/27 07:32:49;;;;;;;12.75;8.10;;;;;;;9.04;100.00;101823.06;5008245;28;20045;-83
2022/10/27 07:35:16;;;;;;;12.45;7.15;;;;;;;9.09;100.00;101817.81;5004415;28;20095;-83
2022/10/27 07:37:47;;;;;;;14.52;7.50;;;;;;;9.15;100.00;101831.00;4997433;28;20045;-83
2022/10/27 07:40:15;;;;;;;15.30;7.82;;;;;;;9.20;100.00;101824.88;5014090;28;20088;-81
2022/10/27 07:42:42;;;;;;;15.25;7.72;;;;;;;9.25;100.00;101832.81;5013273;28;20096;-83
2022/10/27 07:45:09;;;;;;;11.85;6.90;;;;;;;9.30;100.00;101831.06;5013186;28;20132;-85
2022/10/27 07:47:36;;;;;;;13.05;7.68;;;;;;;9.36;100.00;101825.81;4980539;28;20062;-86
2022/10/27 07:50:03;;;;;;;17.55;8.27;;;;;;;9.42;100.00;101825.84;4980104;28;20411;-84
2022/10/27 07:52:30;;;;;;;14.43;8.95;;;;;;;9.47;100.00;101828.47;4992884;28;20487;-85
2022/10/27 07:54:56;;;;;;;11.35;7.35;;;;;;;9.55;100.00;101832.03;5009169;28;20042;-85
2022/10/27 07:57:23;;;;;;;12.43;8.65;;;;;;;9.59;100.00;101826.78;4978822;28;20038;-85
2022/10/27 07:59:50;;;;;;;13.43;7.97;;;;;;;9.67;100.00;101828.50;4998429;28;20037;-85
2022/10/27 08:02:17;;;;;;;17.67;8.98;;;;;;;9.73;100.00;101831.19;4997213;28;20095;-84
2022/10/27 08:04:43;;;;;;;14.23;9.23;;;;;;;9.82;100.00;101826.78;5011258;28;20057;-85
2022/10/27 08:07:10;;;;;;;16.90;8.98;;;;;;;9.89;100.00;101830.31;4987877;28;20045;-85
2022/10/27 08:09:37;;;;;;;17.50;9.07;;;;;;;9.97;100.00;101828.56;5000466;28;20617;-85
2022/10/27 08:12:04;;;;;;;16.50;10.65;;;;;;;10.06;100.00;101832.97;4978858;28;20140;-86
2022/10/27 08:14:30;;;;;;;17.30;9.68;;;;;;;10.16;100.00;101835.59;5014573;28;20037;-85
2022/10/27 08:16:57;;;;;;;17.33;10.30;;;;;;;10.30;100.00;101827.72;4994099;28;20042;-85
2022/10/27 08:19:29;;;;;;;16.75;10.07;;;;;;;10.37;100.00;101832.13;5000683;28;20135;-85
2022/10/27 08:21:56;;;;;;;19.65;10.05;;;;;;;10.51;100.00;101836.50;4994590;28;20054;-84
2022/10/27 08:24:22;;;;;;;14.82;9.88;;;;;;;10.58;100.00;101841.78;4989003;28;20042;-85
2022/10/27 08:26:49;;;;;;;16.17;9.25;;;;;;;10.68;100.00;101838.25;4993475;28;20049;-84
2022/10/27 08:29:16;;;;;;;14.88;9.38;;;;;;;10.80;100.00;101842.63;5001682;28;20042;-85
2022/10/27 08:31:42;;;;;;;14.73;10.00;;;;;;;10.94;100.00;101837.31;4984861;28;20049;-85
2022/10/27 08:34:09;;;;;;;17.88;11.52;;;;;;;11.14;100.00;101834.56;4997456;28;20556;-84
2022/10/27 08:36:37;;;;;;;17.65;11.00;;;;;;;11.33;100.00;101833.59;4991047;28;20038;-85
2022/10/27 08:39:05;;;;;;;18.58;12.45;;;;;;;11.52;100.00;101845.00;5027982;28;20096;-85
2022/10/27 08:41:39;;;;;;;18.42;12.05;;;;;;;11.69;100.00;101844.91;5010559;28;20438;-85
2022/10/27 08:44:15;;;;;;;;;;;;;;;12.00;100.00;101845.56;5013853;28;20572;-85
2022/10/27 08:46:48;;;;;;;18.05;12.13;;;;;;;12.13;100.00;101855.19;4995214;28;20420;-85
2022/10/27 08:49:34;;;;;;;18.52;13.13;;;;;;;12.25;100.00;101854.22;4988619;28;20038;-85
2022/10/27 08:52:11;;;;;;;18.40;12.18;;;;;;;12.35;100.00;101854.09;4993754;28;20084;-85
2022/10/27 08:54:39;;;;;;;17.58;11.27;;;;;;;12.45;100.00;101854.94;5014717;28;20080;-85
2022/10/27 08:57:09;;;;;;;15.93;11.13;;;;;;;12.56;100.00;101853.06;4983270;28;20041;-84
2022/10/27 08:59:36;;;;;;;16.85;11.43;;;;;;;12.63;100.00;101857.41;4997855;28;20043;-85
2022/10/27 09:02:43;;;;;;;18.17;10.90;;;;;;;12.75;100.00;101860.81;4993231;28;20147;-84
2022/10/27 09:05:20;;;;;;;16.98;11.43;;;;;;;12.84;100.00;101860.72;4987301;28;20132;-86
2022/10/27 09:07:53;;;;;;;16.73;11.45;;;;;;;12.97;100.00;101849.09;5005541;28;20495;-81
2022/10/27 09:10:41;;;;;;;16.27;11.05;;;;;;;13.02;100.00;101867.59;5026550;28;20041;-82
2022/10/27 09:13:19;;;;;;;15.65;10.05;;;;;;;13.13;100.00;101863.94;4997325;28;20115;-82
2022/10/27 09:15:48;;;;;;;18.13;10.82;;;;;;;13.28;100.00;101862.88;5026905;28;20435;-81
2022/10/27 09:18:21;;;;;;;15.43;10.10;;;;;;;13.42;100.00;101858.28;4989621;28;20099;-83
2022/10/27 09:20:53;;;;;;;13.65;10.15;;;;;;;13.57;100.00;101862.53;4993573;28;20433;-85
2022/10/27 09:23:25;;;;;;;14.43;9.27;;;;;;;13.69;100.00;101867.66;5008286;28;20718;-86
2022/10/27 09:25:53;;;;;;;14.70;9.77;;;;;;;13.85;100.00;101860.34;5011779;28;20128;-86
2022/10/27 09:28:50;;;;;;;13.65;8.25;;;;;;;13.83;100.00;101864.81;5003071;28;20077;-84
2022/10/27 09:31:20;;;;;;;10.93;7.90;;;;;;;13.95;100.00;101858.41;4984568;28;20137;-84
2022/10/27 09:33:52;;;;;;;12.50;8.68;;;;;;;14.06;100.00;101862.69;4998453;28;20064;-84
2022/10/27 09:36:20;;;;;;;10.38;6.65;;;;;;;14.13;100.00;101860.81;4986227;28;20049;-84
2022/10/27 09:38:47;;;;;;;8.25;6.32;;;;;;;14.25;100.00;101862.38;4975730;28;20100;-83
2022/10/27 09:41:14;;;;;;;9.95;6.30;;;;;;;14.35;100.00;101856.00;5015309;28;20061;-84
2022/10/27 09:43:40;;;;;;;8.25;6.63;;;;;;;14.47;100.00;101857.63;5012799;28;20088;-84
2022/10/27 09:46:15;;;;;;;8.30;5.68;;;;;;;14.54;100.00;101865.44;5015226;28;20033;-84
2022/10/27 09:48:50;;;;;;;9.65;6.53;;;;;;;14.64;100.00;101869.72;4999195;28;20104;-84
2022/10/27 09:51:22;;;;;;;8.20;5.90;;;;;;;14.76;100.00;101865.06;4994410;28;20088;-83
2022/10/27 09:53:51;;;;;;;6.90;5.38;;;;;;;14.87;100.00;101861.28;5000199;28;20080;-85
2022/10/27 09:56:27;;;;;;;10.60;5.72;;;;;;;15.09;100.00;101864.41;5008119;28;20038;-83
2022/10/27 09:58:57;;;;;;;8.90;5.60;;;;;;;15.32;100.00;101863.97;4996975;28;20054;-84
2022/10/27 10:01:25;;;;;;;7.55;5.10;;;;;;;15.41;100.00;101860.22;4991284;28;20069;-84
2022/10/27 10:04:04;;;;;;;7.05;4.93;;;;;;;15.57;100.00;101866.97;5000023;28;20049;-84
2022/10/27 10:06:36;;;;;;;8.55;5.22;;;;;;;15.61;100.00;101863.34;5001783;28;20057;-84
2022/10/27 10:09:25;;;;;;;7.68;5.03;;;;;;;15.62;100.00;101861.56;5012147;28;20041;-84
2022/10/27 10:12:11;;;;;;;8.38;5.20;;;;;;;15.69;100.00;101868.50;5024732;28;20094;-84
2022/10/27 10:14:41;;;;;;;7.70;4.63;;;;;;;15.72;100.00;101861.34;5030715;28;20037;-84
2022/10/27 10:17:25;;;;;;;7.20;4.22;;;;;;;15.73;100.00;101863.09;5017540;28;20041;-83
2022/10/27 10:19:55;;;;;;;6.10;4.50;;;;;;;15.70;100.00;101865.81;5002375;28;20048;-84
2022/10/27 10:22:26;;;;;;;7.53;4.18;;;;;;;15.81;100.00;101870.00;5009095;28;21550;-84
2022/10/27 10:24:54;;;;;;;8.60;3.95;;;;;;;15.81;100.00;101860.25;5016437;28;20041;-84
2022/10/27 10:27:32;;;;;;;7.40;3.90;;;;;;;15.98;100.00;101862.53;5009031;28;20033;-83
2022/10/27 10:30:03;;;;;;;15.75;5.10;;;;;;;16.23;100.00;101866.34;5020084;28;20065;-84
2022/10/27 10:32:54;;;;;;;11.30;4.00;;;;;;;16.42;100.00;101860.53;5000025;28;20076;-84
2022/10/27 10:35:58;;;;;;;8.68;7.65;;;;;;;16.68;100.00;101860.75;5014763;28;20165;-83
2022/10/27 10:38:40;;;;;;;8.90;7.10;;;;;;;16.99;100.00;101858.16;4985703;28;20639;-83
2022/10/27 10:41:26;;;;;;;7.43;4.50;;;;;;;17.20;100.00;101862.00;5018684;28;20127;-83
2022/10/27 10:44:07;;;;;;;8.02;4.97;;;;;;;17.28;100.00;101856.44;4993233;28;20049;-84
2022/10/27 10:46:39;;;;;;;6.63;3.83;;;;;;;17.33;100.00;101867.88;5022989;28;20072;-83
2022/10/27 10:49:20;;;;;;;6.45;3.90;;;;;;;17.37;100.00;101858.81;4992660;28;20047;-84
2022/10/27 10:51:57;;;;;;;7.68;4.38;;;;;;;17.32;100.00;101864.31;4996915;28;20400;-82
2022/10/27 10:54:36;;;;;;;9.20;4.13;;;;;;;17.23;100.00;101866.34;4992578;28;20057;-82
2022/10/27 10:57:03;;;;;;;6.15;4.65;;;;;;;17.23;100.00;101863.69;4994986;28;20050;-85
2022/10/27 10:59:32;;;;;;;7.13;4.10;;;;;;;17.32;100.00;101861.66;5005725;28;20510;-83
2022/10/27 11:02:32;;;;;;;6.88;3.97;;;;;;;17.24;100.00;101862.78;4978935;28;20411;-84
2022/10/27 11:05:11;;;;;;;7.50;4.28;;;;;;;17.13;100.00;101861.28;4971226;28;20103;-83
2022/10/27 11:07:39;;;;;;;7.05;3.85;;;;;;;17.19;100.00;101867.38;5005858;28;20774;-83
2022/10/27 11:10:17;;;;;;;5.80;3.78;;;;;;;17.27;100.00;101868.03;5021764;28;20045;-83
2022/10/27 11:12:56;;;;;;;7.45;3.90;;;;;;;17.39;100.00;101865.00;5031432;28;20041;-83
2022/10/27 11:15:28;;;;;;;8.45;4.10;;;;;;;17.56;100.00;101864.47;4996618;28;20038;-83
2022/10/27 11:17:59;;;;;;;11.00;4.23;;;;;;;17.77;100.00;101857.66;5017258;28;20495;-84
2022/10/27 11:20:28;;;;;;;9.65;4.05;;;;;;;17.57;100.00;101861.78;5001502;28;20046;-83
2022/10/27 11:22:56;;;;;;;7.90;4.05;;;;;;;17.55;100.00;101855.59;5015615;28;20103;-82
2022/10/27 11:25:26;;;;;;;11.30;3.90;;;;;;;17.58;100.00;101849.31;5010434;28;20209;-82
2022/10/27 11:28:10;;;;;;;9.40;3.85;;;;;;;17.51;100.00;101855.75;5017515;28;20041;-83
2022/10/27 11:30:46;;;;;;;5.68;3.22;;;;;;;17.35;100.00;101852.66;5036214;28;20187;-80
2022/10/27 11:33:25;;;;;;;7.45;4.75;;;;;;;17.30;100.00;101842.09;5017496;28;20588;-84
2022/10/27 11:36:11;;;;;;;8.80;3.47;;;;;;;17.36;100.00;101844.59;5005713;28;20045;-83